sensor_id;sensor_type;location;lat;lon;timestamp;pressure;altitude;pressure_sealevel;temperature;humidity
21706;BME280;11014;53.076;18.208;2024-03-23T00:52:49;100447.28;;;12.35;75.96
21706;BME280;11014;53.076;18.208;2024-03-23T00:55:16;100444.84;;;12.34;75.75
21706;BME280;11014;53.076;18.208;2024-03-23T00:57:43;100442.38;;;12.32;75.64
21706;BME280;11014;53.076;18.208;2024-03-23T01:00:11;100440.44;;;12.28;75.49
21706;BME280;11014;53.076;18.208;2024-03-23T01:02:39;100433.41;;;12.27;75.36
21706;BME280;11014;53.076;18.208;2024-03-23T01:05:08;100423.81;;;12.31;75.42
21706;BME280;11014;53.076;18.208;2024-03-23T01:07:35;100426.00;;;12.34;75.52
21706;BME280;11014;53.076;18.208;2024-03-23T01:10:03;100428.22;;;12.37;75.44
21706;BME280;11014;53.076;18.208;2024-03-23T01:12:31;100427.13;;;12.38;75.12
21706;BME280;11014;53.076;18.208;2024-03-23T01:14:59;100430.63;;;12.38;75.23
21706;BME280;11014;53.076;18.208;2024-03-23T01:17:26;100427.13;;;12.38;75.01
21706;BME280;11014;53.076;18.208;2024-03-23T01:19:53;100429.03;;;12.37;75.01
21706;BME280;11014;53.076;18.208;2024-03-23T01:22:21;100437.41;;;12.41;75.02
21706;BME280;11014;53.076;18.208;2024-03-23T01:24:53;100433.59;;;12.37;75.06
21706;BME280;11014;53.076;18.208;2024-03-23T01:27:20;100438.91;;;12.32;75.06
21706;BME280;11014;53.076;18.208;2024-03-23T01:29:47;100428.03;;;12.27;75.17
21706;BME280;11014;53.076;18.208;2024-03-23T01:32:16;100429.69;;;12.28;75.28
21706;BME280;11014;53.076;18.208;2024-03-23T01:34:43;100431.13;;;12.35;75.43
21706;BME280;11014;53.076;18.208;2024-03-23T01:37:11;100437.41;;;12.41;75.20
21706;BME280;11014;53.076;18.208;2024-03-23T01:39:38;100423.94;;;12.41;75.36
21706;BME280;11014;53.076;18.208;2024-03-23T01:42:06;100423.94;;;12.41;75.04
21706;BME280;11014;53.076;18.208;2024-03-23T01:44:34;100422.34;;;12.40;75.01
21706;BME280;11014;53.076;18.208;2024-03-23T01:47:02;100410.75;;;12.39;75.16
21706;BME280;11014;53.076;18.208;2024-03-23T01:49:29;100412.03;;;12.37;75.10
21706;BME280;11014;53.076;18.208;2024-03-23T01:51:58;100425.81;;;12.40;75.00
21706;BME280;11014;53.076;18.208;2024-03-23T01:54:26;100420.69;;;12.39;74.87
21706;BME280;11014;53.076;18.208;2024-03-23T01:56:55;100409.84;;;12.34;74.63
21706;BME280;11014;53.076;18.208;2024-03-23T01:59:23;100412.53;;;12.34;74.73
21706;BME280;11014;53.076;18.208;2024-03-23T02:01:50;100413.03;;;12.31;74.46
21706;BME280;11014;53.076;18.208;2024-03-23T02:04:21;100413.53;;;12.28;74.51
21706;BME280;11014;53.076;18.208;2024-03-23T02:06:49;100415.66;;;12.26;74.40
21706;BME280;11014;53.076;18.208;2024-03-23T02:09:17;100416.13;;;12.23;74.19
21706;BME280;11014;53.076;18.208;2024-03-23T02:11:44;100419.06;;;12.21;74.03
21706;BME280;11014;53.076;18.208;2024-03-23T02:14:13;100425.75;;;12.19;73.91
21706;BME280;11014;53.076;18.208;2024-03-23T02:16:42;100420.06;;;12.15;73.89
21706;BME280;11014;53.076;18.208;2024-03-23T02:19:10;100412.22;;;12.14;73.89
21706;BME280;11014;53.076;18.208;2024-03-23T02:21:38;100408.47;;;12.15;73.70
21706;BME280;11014;53.076;18.208;2024-03-23T02:24:06;100411.41;;;12.13;73.87
21706;BME280;11014;53.076;18.208;2024-03-23T02:26:34;100391.66;;;12.08;73.77
21706;BME280;11014;53.076;18.208;2024-03-23T02:29:01;100400.47;;;12.03;73.88
21706;BME280;11014;53.076;18.208;2024-03-23T02:31:30;100405.84;;;12.03;73.60
21706;BME280;11014;53.076;18.208;2024-03-23T02:33:57;100395.84;;;11.99;73.64
21706;BME280;11014;53.076;18.208;2024-03-23T02:36:25;100393.44;;;12.02;74.02
21706;BME280;11014;53.076;18.208;2024-03-23T02:38:53;100385.16;;;12.04;nan
21706;BME280;11014;53.076;18.208;2024-03-23T02:41:21;100377.63;;;12.06;nan
21706;BME280;11014;53.076;18.208;2024-03-23T02:43:50;100380.88;;;12.08;nan
21706;BME280;11014;53.076;18.208;2024-03-23T02:46:18;100379.59;;;12.10;nan
21706;BME280;11014;53.076;18.208;2024-03-23T02:48:48;100374.53;;;12.14;nan
21706;BME280;11014;53.076;18.208;2024-03-23T02:51:16;100370.28;;;12.18;nan
21706;BME280;11014;53.076;18.208;2024-03-23T02:53:43;100366.50;;;12.19;nan
21706;BME280;11014;53.076;18.208;2024-03-23T02:56:11;100368.97;;;12.20;nan
21706;BME280;11014;53.076;18.208;2024-03-23T02:58:43;100362.78;;;12.20;nan
21706;BME280;11014;53.076;18.208;2024-03-23T03:01:11;100364.91;;;12.18;nan
21706;BME280;11014;53.076;18.208;2024-03-23T03:03:39;100355.75;;;12.19;nan
21706;BME280;11014;53.076;18.208;2024-03-23T03:06:07;100351.44;;;12.18;nan
21706;BME280;11014;53.076;18.208;2024-03-23T03:08:35;100345.50;;;12.16;nan
21706;BME280;11014;53.076;18.208;2024-03-23T03:11:03;100339.53;;;12.14;nan
21706;BME280;11014;53.076;18.208;2024-03-23T03:13:30;100329.50;;;12.09;nan
21706;BME280;11014;53.076;18.208;2024-03-23T03:15:58;100324.06;;;12.04;nan
21706;BME280;11014;53.076;18.208;2024-03-23T03:18:25;100325.84;;;11.99;nan
21706;BME280;11014;53.076;18.208;2024-03-23T03:20:54;100328.47;;;11.94;nan
21706;BME280;11014;53.076;18.208;2024-03-23T03:23:22;100332.28;;;11.98;nan
21706;BME280;11014;53.076;18.208;2024-03-23T03:25:49;100329.09;;;12.01;nan
21706;BME280;11014;53.076;18.208;2024-03-23T03:28:16;100326.75;;;12.04;nan
21706;BME280;11014;53.076;18.208;2024-03-23T03:30:45;100319.22;;;12.06;nan
21706;BME280;11014;53.076;18.208;2024-03-23T03:33:13;100328.13;;;12.07;nan
21706;BME280;11014;53.076;18.208;2024-03-23T03:35:41;100325.94;;;12.04;nan
21706;BME280;11014;53.076;18.208;2024-03-23T03:38:08;100323.47;;;12.02;nan
21706;BME280;11014;53.076;18.208;2024-03-23T03:40:37;100313.22;;;11.99;nan
21706;BME280;11014;53.076;18.208;2024-03-23T03:43:04;100317.78;;;11.99;nan
21706;BME280;11014;53.076;18.208;2024-03-23T03:45:32;100315.56;;;11.96;nan
21706;BME280;11014;53.076;18.208;2024-03-23T03:47:59;100325.94;;;11.87;nan
21706;BME280;11014;53.076;18.208;2024-03-23T03:50:27;100320.22;;;11.83;nan
21706;BME280;11014;53.076;18.208;2024-03-23T03:52:54;100315.84;;;11.77;nan
21706;BME280;11014;53.076;18.208;2024-03-23T03:55:22;100327.88;;;11.75;nan
21706;BME280;11014;53.076;18.208;2024-03-23T03:57:49;100321.72;;;11.74;nan
21706;BME280;11014;53.076;18.208;2024-03-23T04:00:17;100314.69;;;11.73;nan
21706;BME280;11014;53.076;18.208;2024-03-23T04:02:44;100315.84;;;11.77;nan
21706;BME280;11014;53.076;18.208;2024-03-23T04:05:12;100304.56;;;11.80;nan
21706;BME280;11014;53.076;18.208;2024-03-23T04:07:39;100311.34;;;11.83;nan
21706;BME280;11014;53.076;18.208;2024-03-23T04:10:07;100301.72;;;11.87;nan
21706;BME280;11014;53.076;18.208;2024-03-23T04:12:35;100308.16;;;11.86;nan
21706;BME280;11014;53.076;18.208;2024-03-23T04:15:03;100310.47;;;11.77;nan
21706;BME280;11014;53.076;18.208;2024-03-23T04:17:33;100311.44;;;11.71;nan
21706;BME280;11014;53.076;18.208;2024-03-23T04:20:04;100312.38;;;11.65;nan
21706;BME280;11014;53.076;18.208;2024-03-23T04:22:40;100307.00;;;11.65;nan
21706;BME280;11014;53.076;18.208;2024-03-23T04:25:09;100304.88;;;11.67;nan
21706;BME280;11014;53.076;18.208;2024-03-23T04:27:37;100298.44;;;11.68;nan
21706;BME280;11014;53.076;18.208;2024-03-23T04:30:05;100292.34;;;11.73;nan
21706;BME280;11014;53.076;18.208;2024-03-23T04:32:38;100289.44;;;11.74;nan
21706;BME280;11014;53.076;18.208;2024-03-23T04:35:06;100288.94;;;11.77;nan
21706;BME280;11014;53.076;18.208;2024-03-23T04:37:33;100311.44;;;11.71;nan
21706;BME280;11014;53.076;18.208;2024-03-23T04:40:04;100296.50;;;11.64;nan
21706;BME280;11014;53.076;18.208;2024-03-23T04:42:32;100297.28;;;11.64;nan
21706;BME280;11014;53.076;18.208;2024-03-23T04:45:01;100287.59;;;11.63;nan
21706;BME280;11014;53.076;18.208;2024-03-23T04:47:28;100287.00;;;11.61;nan
21706;BME280;11014;53.076;18.208;2024-03-23T04:49:56;100286.44;;;11.59;nan
21706;BME280;11014;53.076;18.208;2024-03-23T04:52:23;100289.63;;;11.56;nan
21706;BME280;11014;53.076;18.208;2024-03-23T04:54:51;100289.88;;;11.55;nan
21706;BME280;11014;53.076;18.208;2024-03-23T04:57:18;100286.94;;;11.56;nan
21706;BME280;11014;53.076;18.208;2024-03-23T04:59:49;100291.59;;;11.61;nan
21706;BME280;11014;53.076;18.208;2024-03-23T05:02:16;100288.91;;;11.61;nan
21706;BME280;11014;53.076;18.208;2024-03-23T05:04:44;100282.72;;;11.60;nan
21706;BME280;11014;53.076;18.208;2024-03-23T05:07:11;100284.84;;;11.58;nan
21706;BME280;11014;53.076;18.208;2024-03-23T05:09:39;100278.94;;;11.61;nan
21706;BME280;11014;53.076;18.208;2024-03-23T05:12:06;100287.59;;;11.63;nan
21706;BME280;11014;53.076;18.208;2024-03-23T05:14:34;100286.53;;;11.64;nan
21706;BME280;11014;53.076;18.208;2024-03-23T05:17:01;100273.66;;;11.66;nan
21706;BME280;11014;53.076;18.208;2024-03-23T05:19:30;100268.84;;;11.68;nan
21706;BME280;11014;53.076;18.208;2024-03-23T05:21:57;100259.06;;;11.62;nan
21706;BME280;11014;53.076;18.208;2024-03-23T05:24:25;100260.03;;;11.56;nan
21706;BME280;11014;53.076;18.208;2024-03-23T05:26:53;100255.16;;;11.53;nan
21706;BME280;11014;53.076;18.208;2024-03-23T05:29:21;100253.53;;;11.52;nan
21706;BME280;11014;53.076;18.208;2024-03-23T05:31:51;100242.28;;;11.55;nan
21706;BME280;11014;53.076;18.208;2024-03-23T05:34:19;100245.53;;;11.57;nan
21706;BME280;11014;53.076;18.208;2024-03-23T05:36:46;100240.97;;;11.58;nan
21706;BME280;11014;53.076;18.208;2024-03-23T05:39:14;100249.63;;;11.60;nan
21706;BME280;11014;53.076;18.208;2024-03-23T05:41:43;100245.63;;;11.62;nan
21706;BME280;11014;53.076;18.208;2024-03-23T05:44:11;100242.44;;;11.65;nan
21706;BME280;11014;53.076;18.208;2024-03-23T05:46:38;100247.31;;;11.68;nan
21706;BME280;11014;53.076;18.208;2024-03-23T05:49:06;100244.19;;;11.71;nan
21706;BME280;11014;53.076;18.208;2024-03-23T05:51:33;100243.69;;;11.74;nan
21706;BME280;11014;53.076;18.208;2024-03-23T05:54:01;100246.94;;;11.76;nan
21706;BME280;11014;53.076;18.208;2024-03-23T05:56:28;100235.13;;;11.77;nan
21706;BME280;11014;53.076;18.208;2024-03-23T05:58:56;100238.88;;;11.76;nan
21706;BME280;11014;53.076;18.208;2024-03-23T06:01:23;100218.97;;;11.77;nan
21706;BME280;11014;53.076;18.208;2024-03-23T06:03:51;100191.25;;;11.77;nan
21706;BME280;11014;53.076;18.208;2024-03-23T06:06:18;100179.19;;;11.79;nan
21706;BME280;11014;53.076;18.208;2024-03-23T06:08:46;100163.66;;;11.86;nan
21706;BME280;11014;53.076;18.208;2024-03-23T06:11:14;100153.53;;;11.94;nan
21706;BME280;11014;53.076;18.208;2024-03-23T06:13:42;100183.19;;;11.99;nan
21706;BME280;11014;53.076;18.208;2024-03-23T06:16:09;100182.19;;;12.05;nan
21706;BME280;11014;53.076;18.208;2024-03-23T06:18:37;100177.69;;;12.10;nan
21706;BME280;11014;53.076;18.208;2024-03-23T06:21:13;100179.69;;;12.20;nan
21706;BME280;11014;53.076;18.208;2024-03-23T06:23:41;100181.31;;;12.21;nan
21706;BME280;11014;53.076;18.208;2024-03-23T06:26:09;100181.88;;;12.23;nan
21706;BME280;11014;53.076;18.208;2024-03-23T06:28:36;100186.88;;;12.14;nan
21706;BME280;11014;53.076;18.208;2024-03-23T06:31:09;100191.44;;;12.14;nan
21706;BME280;11014;53.076;18.208;2024-03-23T06:33:42;100209.41;;;12.08;nan
21706;BME280;11014;53.076;18.208;2024-03-23T06:36:10;100196.38;;;12.00;nan
21706;BME280;11014;53.076;18.208;2024-03-23T06:38:39;100205.03;;;12.02;nan
21706;BME280;11014;53.076;18.208;2024-03-23T06:41:08;100202.91;;;12.04;nan
21706;BME280;11014;53.076;18.208;2024-03-23T06:43:35;100203.47;;;12.06;nan
21706;BME280;11014;53.076;18.208;2024-03-23T06:46:04;100202.09;;;12.04;nan
21706;BME280;11014;53.076;18.208;2024-03-23T06:48:32;100194.53;;;12.01;nan
21706;BME280;11014;53.076;18.208;2024-03-23T06:50:59;100187.25;;;12.01;nan
21706;BME280;11014;53.076;18.208;2024-03-23T06:53:26;100191.66;;;12.07;nan
21706;BME280;11014;53.076;18.208;2024-03-23T06:55:54;100192.53;;;12.13;nan
21706;BME280;11014;53.076;18.208;2024-03-23T06:58:24;100199.56;;;12.19;nan
21706;BME280;11014;53.076;18.208;2024-03-23T07:00:52;100194.78;;;12.21;nan
21706;BME280;11014;53.076;18.208;2024-03-23T07:03:20;100188.91;;;12.24;nan
21706;BME280;11014;53.076;18.208;2024-03-23T07:05:50;100189.63;;;12.19;nan
21706;BME280;11014;53.076;18.208;2024-03-23T07:08:17;100195.22;;;12.13;nan
21706;BME280;11014;53.076;18.208;2024-03-23T07:10:52;100191.94;;;12.11;nan
21706;BME280;11014;53.076;18.208;2024-03-23T07:13:24;100178.75;;;12.09;nan
21706;BME280;11014;53.076;18.208;2024-03-23T07:15:53;100183.06;;;12.10;nan
21706;BME280;11014;53.076;18.208;2024-03-23T07:18:24;100180.69;;;12.14;nan
21706;BME280;11014;53.076;18.208;2024-03-23T07:20:56;100171.53;;;12.15;nan
21706;BME280;11014;53.076;18.208;2024-03-23T07:23:26;100172.66;;;12.19;nan
21706;BME280;11014;53.076;18.208;2024-03-23T07:26:00;100167.91;;;12.26;nan
21706;BME280;11014;53.076;18.208;2024-03-23T07:28:29;100169.41;;;12.17;nan
21706;BME280;11014;53.076;18.208;2024-03-23T07:33:31;100163.84;;;12.02;nan
21706;BME280;11014;53.076;18.208;2024-03-23T07:35:59;100169.69;;;11.94;nan
21706;BME280;11014;53.076;18.208;2024-03-23T07:38:31;100168.03;;;11.93;nan
21706;BME280;11014;53.076;18.208;2024-03-23T07:41:15;100168.38;;;11.96;nan
21706;BME280;11014;53.076;18.208;2024-03-23T07:43:46;100165.09;;;11.94;nan
21706;BME280;11014;53.076;18.208;2024-03-23T07:46:21;100148.66;;;11.91;nan
21706;BME280;11014;53.076;18.208;2024-03-23T07:48:49;100151.06;;;11.92;nan
21706;BME280;11014;53.076;18.208;2024-03-23T07:51:20;100146.50;;;11.93;nan
21706;BME280;11014;53.076;18.208;2024-03-23T07:53:48;100147.31;;;11.93;nan
21706;BME280;11014;53.076;18.208;2024-03-23T07:56:16;100154.63;;;11.98;nan
21706;BME280;11014;53.076;18.208;2024-03-23T07:58:45;100160.03;;;11.98;nan
21706;BME280;11014;53.076;18.208;2024-03-23T08:01:15;100154.69;;;12.03;nan
21706;BME280;11014;53.076;18.208;2024-03-23T08:03:45;100155.28;;;12.05;nan
21706;BME280;11014;53.076;18.208;2024-03-23T08:06:17;100155.28;;;12.05;nan
21706;BME280;11014;53.076;18.208;2024-03-23T08:08:48;100149.91;;;12.05;nan
21706;BME280;11014;53.076;18.208;2024-03-23T08:11:16;100134.25;;;12.02;nan
21706;BME280;11014;53.076;18.208;2024-03-23T08:13:45;100128.28;;;12.00;nan
21706;BME280;11014;53.076;18.208;2024-03-23T08:16:12;100126.69;;;11.99;nan
21706;BME280;11014;53.076;18.208;2024-03-23T08:18:41;100131.50;;;11.97;nan
21706;BME280;11014;53.076;18.208;2024-03-23T08:21:09;100133.09;;;11.98;nan
21706;BME280;11014;53.076;18.208;2024-03-23T08:23:37;100130.97;;;12.00;nan
21706;BME280;11014;53.076;18.208;2024-03-23T08:26:09;100115.13;;;12.03;nan
21706;BME280;11014;53.076;18.208;2024-03-23T08:28:39;100113.81;;;12.06;nan
21706;BME280;11014;53.076;18.208;2024-03-23T08:31:08;100105.50;;;12.07;nan
21706;BME280;11014;53.076;18.208;2024-03-23T08:33:36;100104.19;;;12.10;nan
21706;BME280;11014;53.076;18.208;2024-03-23T08:36:05;100109.06;;;12.13;nan
21706;BME280;11014;53.076;18.208;2024-03-23T08:38:34;100098.31;;;12.13;nan
21706;BME280;11014;53.076;18.208;2024-03-23T08:41:04;100093.97;;;12.12;nan
21706;BME280;11014;53.076;18.208;2024-03-23T08:43:42;100080.50;;;12.12;nan
21706;BME280;11014;53.076;18.208;2024-03-23T08:46:13;100079.69;;;12.11;nan
21706;BME280;11014;53.076;18.208;2024-03-23T08:48:44;100076.25;;;12.16;nan
21706;BME280;11014;53.076;18.208;2024-03-23T08:51:14;100060.94;;;12.21;nan
21706;BME280;11014;53.076;18.208;2024-03-23T08:53:43;100069.66;;;12.28;nan
21706;BME280;11014;53.076;18.208;2024-03-23T08:56:11;100072.06;;;12.30;nan
21706;BME280;11014;53.076;18.208;2024-03-23T08:58:45;100074.47;;;12.26;nan
21706;BME280;11014;53.076;18.208;2024-03-23T09:01:25;100068.50;;;12.24;nan
21706;BME280;11014;53.076;18.208;2024-03-23T09:08:44;100066.38;;;12.53;nan
21706;BME280;11014;53.076;18.208;2024-03-23T09:11:14;100065.19;;;12.44;nan
21706;BME280;11014;53.076;18.208;2024-03-23T09:13:42;100055.13;;;12.61;nan
21706;BME280;11014;53.076;18.208;2024-03-23T09:16:12;100064.78;;;12.57;nan
21706;BME280;11014;53.076;18.208;2024-03-23T09:18:40;100051.47;;;12.77;nan
21706;BME280;11014;53.076;18.208;2024-03-23T09:21:28;100053.38;;;12.82;nan
21706;BME280;11014;53.076;18.208;2024-03-23T09:23:58;100043.31;;;12.67;nan
21706;BME280;11014;53.076;18.208;2024-03-23T09:26:31;100025.22;;;12.31;nan
21706;BME280;11014;53.076;18.208;2024-03-23T09:28:59;100035.78;;;12.69;nan
21706;BME280;11014;53.076;18.208;2024-03-23T09:31:27;100029.13;;;12.82;nan
21706;BME280;11014;53.076;18.208;2024-03-23T09:33:55;100040.25;;;12.90;nan
21706;BME280;11014;53.076;18.208;2024-03-23T09:36:22;100032.69;;;12.92;nan
21706;BME280;11014;53.076;18.208;2024-03-23T09:38:52;100035.13;;;12.89;nan
21706;BME280;11014;53.076;18.208;2024-03-23T09:41:45;100030.56;;;12.94;nan
21706;BME280;11014;53.076;18.208;2024-03-23T09:44:38;100020.69;;;12.68;nan
21706;BME280;11014;53.076;18.208;2024-03-23T09:47:08;100007.69;;;12.60;nan
21706;BME280;11014;53.076;18.208;2024-03-23T09:49:38;100012.00;;;12.61;nan
21706;BME280;11014;53.076;18.208;2024-03-23T09:52:05;100009.56;;;12.60;nan
21706;BME280;11014;53.076;18.208;2024-03-23T09:54:34;99997.75;;;12.66;nan
21706;BME280;11014;53.076;18.208;2024-03-23T09:57:04;99979.75;;;12.71;nan
21706;BME280;11014;53.076;18.208;2024-03-23T09:59:33;99994.34;;;12.75;nan
21706;BME280;11014;53.076;18.208;2024-03-23T10:02:01;100003.47;;;12.74;nan
21706;BME280;11014;53.076;18.208;2024-03-23T10:04:40;99994.34;;;12.75;nan
21706;BME280;11014;53.076;18.208;2024-03-23T10:07:15;99995.38;;;12.69;nan
21706;BME280;11014;53.076;18.208;2024-03-23T10:09:45;99988.84;;;12.65;nan
21706;BME280;11014;53.076;18.208;2024-03-23T10:12:17;99997.00;;;12.70;nan
21706;BME280;11014;53.076;18.208;2024-03-23T10:14:46;99999.69;;;12.70;nan
21706;BME280;11014;53.076;18.208;2024-03-23T10:17:18;99994.34;;;12.75;nan
21706;BME280;11014;53.076;18.208;2024-03-23T10:19:47;99991.03;;;12.68;nan
21706;BME280;11014;53.076;18.208;2024-03-23T10:22:20;100002.91;;;12.67;nan
21706;BME280;11014;53.076;18.208;2024-03-23T10:24:49;99996.41;;;12.63;nan
21706;BME280;11014;53.076;18.208;2024-03-23T10:27:20;99992.13;;;12.67;nan
21706;BME280;11014;53.076;18.208;2024-03-23T10:30:15;99997.53;;;12.72;nan
21706;BME280;11014;53.076;18.208;2024-03-23T10:32:46;100003.09;;;12.56;nan
21706;BME280;11014;53.076;18.208;2024-03-23T10:35:21;99987.91;;;12.44;nan
21706;BME280;11014;53.076;18.208;2024-03-23T10:37:51;99991.28;;;12.30;nan
21706;BME280;11014;53.076;18.208;2024-03-23T10:40:45;99979.38;;;12.21;nan
21706;BME280;11014;53.076;18.208;2024-03-23T10:43:13;99982.63;;;12.23;nan
21706;BME280;11014;53.076;18.208;2024-03-23T10:45:41;99978.34;;;12.27;nan
21706;BME280;11014;53.076;18.208;2024-03-23T10:48:08;99973.78;;;12.32;nan
21706;BME280;11014;53.076;18.208;2024-03-23T10:50:36;99975.50;;;12.43;nan
21706;BME280;11014;53.076;18.208;2024-03-23T10:53:08;99964.03;;;12.58;nan
21706;BME280;11014;53.076;18.208;2024-03-23T10:55:36;99960.00;;;12.61;nan
21706;BME280;11014;53.076;18.208;2024-03-23T11:01:23;99925.88;;;12.76;nan
21706;BME280;11014;53.076;18.208;2024-03-23T11:03:52;99919.44;;;12.82;nan
21706;BME280;11014;53.076;18.208;2024-03-23T11:06:36;99913.56;;;12.95;nan
21706;BME280;11014;53.076;18.208;2024-03-23T11:09:04;99911.91;;;12.84;nan
21706;BME280;11014;53.076;18.208;2024-03-23T11:11:51;99920.56;;;12.86;nan
21706;BME280;11014;53.076;18.208;2024-03-23T11:14:22;99915.72;;;12.88;nan
21706;BME280;11014;53.076;18.208;2024-03-23T11:17:21;99913.06;;;12.98;nan
21706;BME280;11014;53.076;18.208;2024-03-23T11:20:07;99906.84;;;12.98;nan
21706;BME280;11014;53.076;18.208;2024-03-23T11:22:39;99900.28;;;12.79;nan
21706;BME280;11014;53.076;18.208;2024-03-23T11:33:44;99876.03;;;12.79;nan
21706;BME280;11014;53.076;18.208;2024-03-23T11:36:19;99882.25;;;12.79;nan
21706;BME280;11014;53.076;18.208;2024-03-23T11:38:46;99888.13;;;12.71;nan
21706;BME280;11014;53.076;18.208;2024-03-23T11:41:14;99885.13;;;12.63;nan
21706;BME280;11014;53.076;18.208;2024-03-23T11:43:42;99878.34;;;12.55;nan
21706;BME280;11014;53.076;18.208;2024-03-23T11:46:09;99875.09;;;12.48;nan
21706;BME280;11014;53.076;18.208;2024-03-23T11:48:37;99878.03;;;12.46;nan
21706;BME280;11014;53.076;18.208;2024-03-23T11:51:05;99874.50;;;12.41;nan
21706;BME280;11014;53.076;18.208;2024-03-23T11:53:33;99874.22;;;12.37;nan
21706;BME280;11014;53.076;18.208;2024-03-23T11:56:01;99874.75;;;12.34;nan
21706;BME280;11014;53.076;18.208;2024-03-23T11:58:29;99864.22;;;12.38;nan
21706;BME280;11014;53.076;18.208;2024-03-23T12:01:01;99856.13;;;12.33;nan
21706;BME280;11014;53.076;18.208;2024-03-23T12:03:31;99856.09;;;12.28;nan
21706;BME280;11014;53.076;18.208;2024-03-23T12:06:03;99859.59;;;12.23;nan
21706;BME280;11014;53.076;18.208;2024-03-23T12:08:32;99854.91;;;12.09;nan
21706;BME280;11014;53.076;18.208;2024-03-23T12:13:35;99847.81;;;11.98;nan
21706;BME280;11014;53.076;18.208;2024-03-23T12:16:20;99830.66;;;12.04;nan
21706;BME280;11014;53.076;18.208;2024-03-23T12:18:49;99825.72;;;11.91;nan
21706;BME280;11014;53.076;18.208;2024-03-23T12:21:18;99808.72;;;11.85;nan
21706;BME280;11014;53.076;18.208;2024-03-23T12:23:46;99810.63;;;11.89;nan
21706;BME280;11014;53.076;18.208;2024-03-23T12:26:14;99813.31;;;11.89;nan
21706;BME280;11014;53.076;18.208;2024-03-23T12:28:45;99804.66;;;11.82;nan
21706;BME280;11014;53.076;18.208;2024-03-23T12:31:12;99808.38;;;11.76;nan
21706;BME280;11014;53.076;18.208;2024-03-23T12:33:42;99810.47;;;11.69;nan
21706;BME280;11014;53.076;18.208;2024-03-23T12:36:11;99816.66;;;11.70;nan
21706;BME280;11014;53.076;18.208;2024-03-23T12:38:39;99825.53;;;11.70;nan
21706;BME280;11014;53.076;18.208;2024-03-23T12:46:49;99787.16;;;11.80;nan
21706;BME280;11014;53.076;18.208;2024-03-23T12:54:36;99788.59;;;11.61;nan
21706;BME280;11014;53.076;18.208;2024-03-23T12:57:04;99787.94;;;11.17;nan
21706;BME280;11014;53.076;18.208;2024-03-23T12:59:31;99782.53;;;11.12;nan
21706;BME280;11014;53.076;18.208;2024-03-23T13:02:24;99767.00;;;11.19;nan
21706;BME280;11014;53.076;18.208;2024-03-23T13:04:52;99741.59;;;11.05;nan
21706;BME280;11014;53.076;18.208;2024-03-23T13:07:22;99734.81;;;10.97;nan
21706;BME280;11014;53.076;18.208;2024-03-23T13:09:57;99721.59;;;10.96;nan
21706;BME280;11014;53.076;18.208;2024-03-23T13:12:25;99715.69;;;10.94;nan
21706;BME280;11014;53.076;18.208;2024-03-23T13:14:53;99709.97;;;10.85;nan
21706;BME280;11014;53.076;18.208;2024-03-23T13:17:26;99704.91;;;10.89;nan
21706;BME280;11014;53.076;18.208;2024-03-23T13:20:01;99700.88;;;10.91;nan
21706;BME280;11014;53.076;18.208;2024-03-23T13:22:31;99701.34;;;10.83;nan
21706;BME280;11014;53.076;18.208;2024-03-23T13:25:02;99715.59;;;10.84;nan
21706;BME280;11014;53.076;18.208;2024-03-23T13:27:37;99724.66;;;10.78;nan
21706;BME280;11014;53.076;18.208;2024-03-23T13:30:06;99727.03;;;10.74;nan
21706;BME280;11014;53.076;18.208;2024-03-23T13:33:16;99745.69;;;10.86;nan
21706;BME280;11014;53.076;18.208;2024-03-23T13:35:53;99750.47;;;10.79;nan
21706;BME280;11014;53.076;18.208;2024-03-23T13:38:27;99739.06;;;10.66;nan
21706;BME280;11014;53.076;18.208;2024-03-23T13:40:57;99731.44;;;10.58;nan
21706;BME280;11014;53.076;18.208;2024-03-23T13:43:35;99731.94;;;10.55;nan
21706;BME280;11014;53.076;18.208;2024-03-23T13:46:06;99743.50;;;10.56;nan
21706;BME280;11014;53.076;18.208;2024-03-23T13:48:36;99732.72;;;10.51;nan
21706;BME280;11014;53.076;18.208;2024-03-23T13:51:04;99735.56;;;10.44;nan
21706;BME280;11014;53.076;18.208;2024-03-23T13:53:32;99740.88;;;10.39;nan
21706;BME280;11014;53.076;18.208;2024-03-23T13:56:00;99739.50;;;10.37;nan
21706;BME280;11014;53.076;18.208;2024-03-23T13:58:28;99741.88;;;10.33;nan
21706;BME280;11014;53.076;18.208;2024-03-23T14:00:58;99760.13;;;10.31;nan
21706;BME280;11014;53.076;18.208;2024-03-23T14:06:13;99764.88;;;10.24;nan
21706;BME280;11014;53.076;18.208;2024-03-23T14:08:41;99756.00;;;10.24;nan
21706;BME280;11014;53.076;18.208;2024-03-23T14:11:11;99762.97;;;10.25;nan
21706;BME280;11014;53.076;18.208;2024-03-23T14:13:38;99762.69;;;10.21;nan
21706;BME280;11014;53.076;18.208;2024-03-23T14:16:07;99781.41;;;10.16;nan
21706;BME280;11014;53.076;18.208;2024-03-23T14:18:35;99779.28;;;10.01;nan
21706;BME280;11014;53.076;18.208;2024-03-23T14:21:03;99782.94;;;9.95;nan
21706;BME280;11014;53.076;18.208;2024-03-23T14:23:31;99778.31;;;9.91;nan
21706;BME280;11014;53.076;18.208;2024-03-23T14:26:01;99797.50;;;9.83;nan
21706;BME280;11014;53.076;18.208;2024-03-23T14:28:29;99791.50;;;9.76;nan
21706;BME280;11014;53.076;18.208;2024-03-23T14:30:56;99800.53;;;9.70;nan
21706;BME280;11014;53.076;18.208;2024-03-23T14:33:24;99806.94;;;9.69;nan
21706;BME280;11014;53.076;18.208;2024-03-23T14:35:56;99819.19;;;9.65;nan
21706;BME280;11014;53.076;18.208;2024-03-23T14:38:24;99831.56;;;9.66;nan
21706;BME280;11014;53.076;18.208;2024-03-23T14:40:51;99839.44;;;9.56;nan